Central Nebraska Regional Airport
KGRI : rendu visible

Aérodrome :











RETROUVEZ-NOUS SUR...

 
LOGIN :

S'inscrire | Disclaimer

   EN    FR    IT 

 









Légende :    VFR   VFR Marginal   IFR   IFR Intensif   IFR Très Intensif
Visi : 
Plafond : 
>= 8 km
>= 3000ft
5 à 8 km
1000 à 3000 ft
1500m à 5 km
500 à 1000 ft
800 à 1500m
200 à 500 ft
< 800m
< 200 ft
Symboles :   Orages  Brouillard  Fortes neiges  Fortes précipitations  Vent > 20 kt






- Altitude de l'aérodrome : 1847 ft
- Code IATA : GRI


KGRI - Central Nebraska Regional

DERNIER METAR :
  • 271553Z 32008KT 10SM OVC050 03/M03 A3011 RMK AO2 SLP218 T00331033

METARs EXPIRÉS :
  • 271453Z 32006KT 10SM OVC050 01/M04 A3010 RMK AO2 SLP216 T00061044 53017
  • 271353Z 29007KT 10SM OVC050 M01/M05 A3009 RMK AO2 SLP212 T10111050

TAF KGRI
Valide du 27 à 12h jusqu'au 28 à 12h UTC


271144Z 2712/2812 28008KT P6SM FEW060 BKN120
FM271500 31010KT P6SM VCSH SCT040 BKN060
FM271800 32014G20KT P6SM VCSH SCT025 OVC040
FM272200 32012KT P6SM SCT040 BKN120
FM280200 28008KT P6SM SCT120



MET'MAP, la Météo Aéronautique d'un coup d'oeil ! - Copyright ORBIFLY Décembre 2007 - Disclaimer

ORBIFLY MET'MAP TEAM :

Programmation & Développement : Alexandra Zaïnal
Sur une idée originale de : Baudouin d'Aumeries
Assistance à la programmation : Marc-Olivier Méhu
Soutien technique & logistique : Manuel Goepfert

Contact : metmap@orbifly.com




SOURCES & CREDITS :

   NOAA       Earth
Advisory